Time;durP1;ratioP1;P1;durP2;ratioP2;P2;SDS_P1;SDS_P2;PMS_P1;PMS_P2;Temp;Humidity;BMP_temperature;BMP_pressure;BME280_temperature;BME280_humidity;BME280_pressure;Samples;Min_cycle;Max_cycle;Signal;HPM_P1;HPM_P2
2022/10/19 00:01:35;;;;;;;12.75;8.30;;;;;;;21.18;42.07;95478.78;5013248;28;20111;-65
2022/10/19 00:04:00;;;;;;;13.38;8.88;;;;;;;21.30;42.16;95504.78;5016680;28;20112;-65
2022/10/19 00:06:28;;;;;;;11.52;8.10;;;;;;;21.43;42.10;95526.84;5011903;28;20523;-57
2022/10/19 00:08:57;;;;;;;11.48;7.82;;;;;;;20.70;41.94;95408.56;5018620;28;20061;-62
2022/10/19 00:11:23;;;;;;;12.10;8.45;;;;;;;21.52;42.18;95534.84;5005460;28;20148;-60
2022/10/19 00:13:49;;;;;;;11.45;7.90;;;;;;;21.64;42.26;95537.16;5021996;28;20047;-66
2022/10/19 00:16:15;;;;;;;11.48;7.97;;;;;;;21.03;42.15;95450.25;5012551;28;20423;-63
2022/10/19 00:18:44;;;;;;;11.75;7.80;;;;;;;21.65;42.03;95548.78;5019328;28;20057;-67
2022/10/19 00:21:10;;;;;;;11.48;8.38;;;;;;;21.62;42.14;95530.72;5006879;28;20029;-66
2022/10/19 00:23:36;;;;;;;12.35;8.65;;;;;;;21.59;42.00;95528.97;5018540;28;20048;-64
2022/10/19 00:26:01;;;;;;;10.60;7.80;;;;;;;21.19;42.17;95458.53;5013038;28;20065;-67
2022/10/19 00:28:27;;;;;;;11.13;8.15;;;;;;;21.23;42.07;95485.47;5007344;28;20033;-64
2022/10/19 00:30:52;;;;;;;12.30;8.20;;;;;;;21.40;42.10;95489.78;5021079;28;20029;-66
2022/10/19 00:33:20;;;;;;;11.40;8.20;;;;;;;20.42;42.08;95331.63;5019334;28;20029;-64
2022/10/19 00:35:48;;;;;;;10.60;7.50;;;;;;;21.57;42.23;95506.97;5011249;28;20033;-67
2022/10/19 00:38:15;;;;;;;11.02;8.07;;;;;;;21.59;42.21;95507.22;5011006;28;20491;-65
2022/10/19 00:40:40;;;;;;;12.82;8.25;;;;;;;21.31;42.34;95481.81;5005904;28;20070;-67
2022/10/19 00:43:16;;;;;;;11.38;8.02;;;;;;;21.57;42.23;95498.81;5005905;28;20022;-67
2022/10/19 00:45:41;;;;;;;12.55;7.93;;;;;;;20.01;42.04;95262.53;5004238;28;20184;-69
2022/10/19 00:48:08;;;;;;;10.05;7.57;;;;;;;20.49;42.22;95347.44;5015508;28;20037;-65
2022/10/19 00:50:33;;;;;;;10.93;7.85;;;;;;;20.96;42.14;95390.25;5006147;28;20125;-68
2022/10/19 00:52:59;;;;;;;11.90;8.13;;;;;;;21.22;42.01;95435.81;5005162;28;20045;-65
2022/10/19 00:55:24;;;;;;;11.55;7.95;;;;;;;21.27;42.14;95459.59;4991941;28;20033;-69
2022/10/19 00:57:50;;;;;;;11.00;8.05;;;;;;;20.69;41.83;95344.69;5012080;28;20041;-64
2022/10/19 01:00:15;;;;;;;11.00;8.52;;;;;;;20.70;42.31;95357.75;5014758;28;20037;-64
2022/10/19 01:02:40;;;;;;;11.38;7.68;;;;;;;20.94;42.27;95393.47;5007785;28;20045;-64
2022/10/19 01:05:06;;;;;;;10.20;7.68;;;;;;;20.88;42.44;95378.34;5019735;28;20053;-66
2022/10/19 01:07:32;;;;;;;12.10;8.00;;;;;;;20.76;42.28;95350.41;4993317;28;20049;-64
2022/10/19 01:09:58;;;;;;;11.43;8.15;;;;;;;20.54;42.17;95316.91;5025313;28;20029;-64
2022/10/19 01:12:34;;;;;;;10.43;7.90;;;;;;;21.51;42.32;95451.84;5019038;28;20507;-66
2022/10/19 01:15:23;;;;;;;10.90;7.90;;;;;;;21.50;42.39;95461.22;5011427;28;20145;-68
2022/10/19 01:18:03;;;;;;;11.00;8.07;;;;;;;21.49;42.36;95451.56;5020580;28;20026;-64
2022/10/19 01:20:39;;;;;;;11.65;7.97;;;;;;;21.27;42.25;95424.28;5011497;28;20061;-68
2022/10/19 01:23:05;;;;;;;9.80;7.65;;;;;;;21.48;42.28;95450.84;5022732;28;20056;-65
2022/10/19 01:26:05;;;;;;;9.90;7.40;;;;;;;21.48;42.26;95450.09;5023547;28;20045;-69
2022/10/19 01:28:56;;;;;;;10.40;7.50;;;;;;;20.43;42.16;95284.28;5018310;28;20492;-65
2022/10/19 01:32:01;;;;;;;10.05;7.20;;;;;;;20.89;42.39;95360.84;5007294;28;20033;-66
2022/10/19 01:34:46;;;;;;;10.95;7.78;;;;;;;21.47;42.30;95440.47;5018406;28;20049;-68
2022/10/19 01:37:27;;;;;;;9.65;7.25;;;;;;;21.47;42.21;95432.31;5010245;28;20040;-64
2022/10/19 01:39:56;;;;;;;10.75;7.68;;;;;;;20.96;42.28;95372.72;5017548;28;20117;-65
2022/10/19 01:42:26;;;;;;;9.70;7.27;;;;;;;21.45;42.37;95427.34;5015528;28;20041;-70
2022/10/19 01:45:01;;;;;;;;;;;;;;;21.46;42.44;95433.53;5014650;28;20085;-64
2022/10/19 01:47:32;;;;;;;10.77;7.20;;;;;;;21.46;42.28;95433.53;5012265;28;19925;-68
2022/10/19 01:50:01;;;;;;;9.50;7.00;;;;;;;21.01;42.04;95361.16;5022715;28;20041;-68
2022/10/19 01:52:26;;;;;;;10.50;7.20;;;;;;;21.30;42.25;95404.28;5010028;28;20060;-68
2022/10/19 01:54:56;;;;;;;10.60;7.45;;;;;;;20.42;42.52;95271.19;5025855;28;20496;-67
2022/10/19 01:57:25;;;;;;;11.40;7.57;;;;;;;21.23;42.66;95412.16;5010657;28;20042;-68
2022/10/19 01:59:50;;;;;;;9.82;7.63;;;;;;;21.43;42.26;95432.50;5007739;28;20109;-63
2022/10/19 02:02:16;;;;;;;9.68;7.35;;;;;;;20.55;42.44;95296.69;5028446;28;20499;-65
2022/10/19 02:04:41;;;;;;;10.18;7.40;;;;;;;20.58;42.22;95295.72;5024299;28;20041;-68
2022/10/19 02:07:07;;;;;;;10.48;7.60;;;;;;;21.40;42.43;95430.00;5014717;28;20022;-67
2022/10/19 02:09:32;;;;;;;10.15;7.10;;;;;;;20.53;42.26;95304.56;5025983;28;20059;-69
2022/10/19 02:11:59;;;;;;;10.48;7.15;;;;;;;21.05;42.33;95374.50;5026912;28;20104;-68
2022/10/19 02:14:30;;;;;;;9.95;7.10;;;;;;;20.85;42.19;95342.06;5001006;28;20046;-66
2022/10/19 02:17:10;;;;;;;10.13;7.43;;;;;;;21.00;42.57;95370.53;5018025;28;20476;-67
2022/10/19 02:19:35;;;;;;;9.38;7.32;;;;;;;21.17;42.20;95378.78;5025614;28;20527;-68
2022/10/19 02:22:01;;;;;;;9.55;6.68;;;;;;;20.64;42.29;95299.22;5024888;28;20033;-68
2022/10/19 02:24:26;;;;;;;10.05;6.90;;;;;;;20.76;42.39;95317.06;5019517;28;20054;-67
2022/10/19 02:26:52;;;;;;;10.30;7.35;;;;;;;21.34;42.09;95399.34;5014332;28;20084;-64
2022/10/19 02:29:17;;;;;;;9.15;6.95;;;;;;;20.32;41.87;95257.09;5025214;28;20053;-65
2022/10/19 02:31:44;;;;;;;9.52;6.90;;;;;;;21.36;42.05;95413.22;5009305;28;20041;-67
2022/10/19 02:34:09;;;;;;;9.93;6.78;;;;;;;21.24;42.37;95395.38;5026330;28;20029;-66
2022/10/19 02:36:35;;;;;;;9.70;6.90;;;;;;;18.82;41.92;95058.34;5011354;28;20072;-62
2022/10/19 02:39:00;;;;;;;10.13;6.53;;;;;;;20.61;42.21;95311.03;5014950;28;20029;-65
2022/10/19 02:41:30;;;;;;;8.88;6.32;;;;;;;20.91;41.77;95350.22;5020437;28;20500;-67
2022/10/19 02:44:09;;;;;;;9.02;7.10;;;;;;;19.79;42.30;95187.66;5006933;28;20046;-68
2022/10/19 02:46:42;;;;;;;9.75;6.68;;;;;;;21.09;42.33;95375.78;5019213;28;20068;-68
2022/10/19 02:49:08;;;;;;;8.68;6.05;;;;;;;21.19;42.48;95401.50;5011024;28;20029;-66
2022/10/19 02:51:55;;;;;;;8.40;6.50;;;;;;;21.33;42.34;95408.75;5008932;28;20049;-65
2022/10/19 02:54:20;;;;;;;9.80;6.85;;;;;;;20.16;42.26;95233.31;5010352;28;20045;-67
2022/10/19 02:56:45;;;;;;;9.65;6.72;;;;;;;20.47;42.33;95282.09;5007960;28;20701;-67
2022/10/19 02:59:11;;;;;;;9.10;6.38;;;;;;;21.27;42.32;95394.41;5007282;28;20033;-68
2022/10/19 03:01:36;;;;;;;10.13;6.43;;;;;;;20.56;42.43;95290.03;5007633;28;20527;-66
2022/10/19 03:04:02;;;;;;;8.38;6.20;;;;;;;20.37;42.29;95259.09;5017710;28;20420;-68
2022/10/19 03:06:27;;;;;;;7.80;5.78;;;;;;;20.42;42.37;95266.53;5012026;28;20437;-68
2022/10/19 03:08:53;;;;;;;9.00;6.55;;;;;;;20.26;42.27;95252.84;5022799;28;20044;-64
2022/10/19 03:11:18;;;;;;;9.40;6.50;;;;;;;20.96;42.41;95359.16;5018108;28;20044;-69
2022/10/19 03:13:44;;;;;;;8.73;6.00;;;;;;;20.00;42.23;95214.22;5010991;28;20632;-67
2022/10/19 03:16:12;;;;;;;8.63;6.40;;;;;;;20.29;42.38;95263.47;5015397;28;20033;-65
2022/10/19 03:18:37;;;;;;;7.82;5.78;;;;;;;20.48;42.42;95291.72;5019763;28;20368;-69
2022/10/19 03:21:04;;;;;;;8.20;6.10;;;;;;;20.26;42.48;95259.00;5021883;28;20061;-67
2022/10/19 03:23:30;;;;;;;8.02;5.95;;;;;;;20.88;42.47;95351.19;5008970;28;20100;-68
2022/10/19 03:25:55;;;;;;;8.90;6.28;;;;;;;20.63;42.23;95331.03;5019928;28;20041;-59
2022/10/19 03:28:21;;;;;;;8.70;6.20;;;;;;;20.67;42.37;95319.94;5011902;28;20101;-67
2022/10/19 03:30:46;;;;;;;10.15;6.53;;;;;;;21.27;42.49;95409.94;5022657;28;20033;-65
2022/10/19 03:33:12;;;;;;;7.57;5.90;;;;;;;19.92;42.29;95202.31;5020868;28;20512;-65
2022/10/19 03:35:37;;;;;;;8.32;6.00;;;;;;;21.12;42.24;95388.38;5011677;28;20567;-60
2022/10/19 03:38:02;;;;;;;8.43;5.90;;;;;;;20.95;42.18;95351.50;5009871;28;20103;-66
2022/10/19 03:40:28;;;;;;;8.80;6.07;;;;;;;21.25;42.42;95396.09;5013012;28;20512;-63
2022/10/19 03:42:53;;;;;;;8.68;6.28;;;;;;;21.12;42.59;95391.09;5015879;28;20530;-62
2022/10/19 03:45:19;;;;;;;8.57;5.70;;;;;;;21.25;42.40;95393.38;5007108;28;20045;-65
2022/10/19 03:47:48;;;;;;;8.05;5.75;;;;;;;20.30;42.26;95254.13;5013569;28;20045;-68
2022/10/19 03:50:15;;;;;;;7.60;5.50;;;;;;;20.62;42.26;95307.09;5019965;28;20034;-64
2022/10/19 03:52:41;;;;;;;8.57;5.78;;;;;;;20.94;42.37;95349.25;5006972;28;20309;-68
2022/10/19 03:55:07;;;;;;;8.30;5.93;;;;;;;20.82;42.44;95340.31;5019257;28;20122;-66
2022/10/19 03:57:33;;;;;;;8.40;5.55;;;;;;;20.30;42.33;95247.94;5010383;28;20128;-64
2022/10/19 03:59:58;;;;;;;8.65;6.03;;;;;;;20.57;42.20;95289.56;5019757;28;20037;-67
2022/10/19 04:02:23;;;;;;;7.90;5.70;;;;;;;20.66;42.55;95299.50;5008552;28;20045;-61
2022/10/19 04:04:49;;;;;;;9.45;6.00;;;;;;;21.20;42.72;95411.13;5017434;28;20119;-66
2022/10/19 04:07:14;;;;;;;8.30;6.00;;;;;;;20.89;42.34;95353.44;5013272;28;20026;-65
2022/10/19 04:09:40;;;;;;;9.80;5.90;;;;;;;17.53;41.98;94870.75;5008774;28;20042;-61
2022/10/19 04:12:05;;;;;;;7.10;5.40;;;;;;;21.19;42.54;95390.63;5005898;28;20041;-65
2022/10/19 04:14:31;;;;;;;7.05;5.75;;;;;;;20.96;42.50;95365.81;5013016;28;20451;-67
2022/10/19 04:16:56;;;;;;;8.73;5.88;;;;;;;21.18;42.35;95381.00;5014055;28;20056;-67
2022/10/19 04:19:22;;;;;;;8.32;6.10;;;;;;;20.19;42.28;95235.06;5021896;28;20037;-66
2022/10/19 04:21:47;;;;;;;8.25;5.80;;;;;;;20.70;42.34;95319.78;5014232;28;20477;-65
2022/10/19 04:24:15;;;;;;;7.70;5.70;;;;;;;20.50;42.56;95279.16;5007139;28;20095;-66
2022/10/19 04:26:45;;;;;;;8.40;5.95;;;;;;;20.94;42.43;95330.25;5016358;28;20067;-65
2022/10/19 04:29:11;;;;;;;8.57;5.90;;;;;;;20.97;42.40;95317.22;5009061;28;20029;-64
2022/10/19 04:31:36;;;;;;;8.70;6.03;;;;;;;20.89;42.28;95314.69;5008421;28;20728;-67
2022/10/19 04:34:02;;;;;;;8.38;6.32;;;;;;;20.67;42.23;95249.41;5004533;28;20124;-67
2022/10/19 04:36:27;;;;;;;8.50;6.10;;;;;;;21.21;41.74;95319.53;5007761;28;20034;-65
2022/10/19 04:38:53;;;;;;;8.45;5.63;;;;;;;20.92;41.85;95264.88;5005054;28;20014;-67
2022/10/19 04:41:19;;;;;;;7.60;5.30;;;;;;;20.40;41.60;95176.75;5004550;28;20827;-68
2022/10/19 04:43:45;;;;;;;7.35;4.97;;;;;;;20.87;41.36;95230.31;5004703;28;20125;-62
2022/10/19 04:46:12;;;;;;;7.30;5.45;;;;;;;21.66;41.66;95408.94;5004186;28;20104;-61
2022/10/19 04:48:38;;;;;;;7.43;5.40;;;;;;;21.80;41.45;95353.63;5004976;28;20033;-62
2022/10/19 04:51:04;;;;;;;7.75;5.43;;;;;;;22.05;41.21;95375.19;5003896;28;20513;-67
2022/10/19 04:53:29;;;;;;;8.02;5.32;;;;;;;21.83;41.12;95353.38;5005209;28;20073;-66
2022/10/19 04:55:55;;;;;;;6.85;5.07;;;;;;;21.50;41.12;95309.06;5004295;28;20038;-63
2022/10/19 04:58:20;;;;;;;7.05;5.18;;;;;;;22.13;40.93;95387.81;5004723;28;20092;-61
2022/10/19 05:00:46;;;;;;;7.65;5.40;;;;;;;21.72;40.74;95317.25;5005390;28;20064;-68
2022/10/19 05:03:11;;;;;;;8.43;5.72;;;;;;;22.11;40.69;95305.97;5007420;28;20128;-62
2022/10/19 05:05:36;;;;;;;7.25;5.75;;;;;;;22.34;40.62;95348.28;5021995;28;20088;-68
2022/10/19 05:08:02;;;;;;;7.50;5.63;;;;;;;22.14;40.85;95343.06;5020701;28;20088;-62
2022/10/19 05:10:27;;;;;;;7.57;5.70;;;;;;;21.95;40.56;95306.69;5003041;28;20022;-64
2022/10/19 05:12:53;;;;;;;8.23;5.30;;;;;;;22.42;40.84;95365.63;5004637;28;20022;-64
2022/10/19 05:15:19;;;;;;;7.80;5.95;;;;;;;22.52;40.54;95342.38;5016027;28;20048;-61
2022/10/19 05:17:44;;;;;;;11.23;5.60;;;;;;;21.66;39.86;95175.22;5017786;28;20486;-64
2022/10/19 05:20:10;;;;;;;11.18;5.57;;;;;;;22.29;40.03;95275.59;5027129;28;20025;-60
2022/10/19 05:22:36;;;;;;;8.88;5.68;;;;;;;22.72;40.00;95333.94;5014295;28;20037;-60
2022/10/19 05:25:02;;;;;;;10.80;5.60;;;;;;;22.85;39.89;95370.31;5015813;28;20025;-58
2022/10/19 05:27:28;;;;;;;10.50;5.55;;;;;;;23.01;39.65;95367.59;5013518;28;20449;-63
2022/10/19 05:29:53;;;;;;;9.45;5.78;;;;;;;22.75;39.12;95284.69;5013766;28;20034;-65
2022/10/19 05:32:18;;;;;;;12.82;5.60;;;;;;;23.23;39.33;95362.09;5016403;28;20057;-61
2022/10/19 05:34:44;;;;;;;7.88;5.18;;;;;;;23.00;39.38;95346.28;5029084;28;20037;-61
2022/10/19 05:37:09;;;;;;;8.52;5.45;;;;;;;22.68;39.03;95273.56;5028263;28;20516;-63
2022/10/19 05:39:35;;;;;;;8.20;5.57;;;;;;;22.47;39.55;95275.09;5014026;28;20034;-59
2022/10/19 05:42:00;;;;;;;8.68;5.25;;;;;;;21.79;39.40;95159.13;5029822;28;20040;-58
2022/10/19 05:44:26;;;;;;;10.95;5.85;;;;;;;22.58;39.11;95258.72;5016631;28;20042;-63
2022/10/19 05:46:51;;;;;;;7.88;5.38;;;;;;;23.29;39.06;95354.66;5013032;28;20037;-61
2022/10/19 05:49:18;;;;;;;8.93;5.40;;;;;;;23.35;39.18;95358.09;5024440;28;20898;-64
2022/10/19 05:51:44;;;;;;;8.13;5.47;;;;;;;23.50;38.93;95369.44;5024568;28;20120;-65
2022/10/19 05:54:10;;;;;;;10.43;5.70;;;;;;;23.12;38.71;95291.31;5019278;28;20037;-61
2022/10/19 05:56:35;;;;;;;8.20;5.63;;;;;;;22.65;38.39;95241.91;5018856;28;20081;-67
2022/10/19 05:59:03;;;;;;;7.15;5.32;;;;;;;23.53;39.02;95366.44;5027855;28;20508;-59
2022/10/19 06:01:29;;;;;;;8.43;5.50;;;;;;;23.16;39.27;95346.25;5023169;28;20025;-64
2022/10/19 06:03:55;;;;;;;7.95;5.30;;;;;;;23.09;39.24;95346.78;5022634;28;20026;-62
2022/10/19 06:06:21;;;;;;;7.05;5.03;;;;;;;23.29;38.88;95371.00;5038762;28;20033;-66
2022/10/19 06:08:47;;;;;;;8.02;5.07;;;;;;;22.51;38.87;95275.56;5016268;28;20030;-65
2022/10/19 06:11:14;;;;;;;8.90;5.60;;;;;;;22.74;38.91;95298.78;5012791;28;20153;-59
2022/10/19 06:13:40;;;;;;;9.25;5.55;;;;;;;23.07;39.12;95376.50;5018600;28;20060;-62
2022/10/19 06:16:06;;;;;;;8.63;5.05;;;;;;;23.04;39.45;95382.94;5014583;28;20022;-60
2022/10/19 06:18:31;;;;;;;8.48;5.70;;;;;;;23.13;39.19;95363.59;5017673;28;20067;-60
2022/10/19 06:21:01;;;;;;;6.32;4.95;;;;;;;22.69;38.52;95294.84;5025995;28;20048;-65
2022/10/19 06:23:26;;;;;;;8.93;5.82;;;;;;;22.37;38.38;95271.13;5023029;28;20041;-66
2022/10/19 06:25:52;;;;;;;7.95;4.97;;;;;;;23.21;38.79;95402.69;5018565;28;20034;-65
2022/10/19 06:28:17;;;;;;;7.38;5.32;;;;;;;22.43;39.21;95296.34;5023934;28;20099;-66
2022/10/19 06:30:42;;;;;;;7.85;5.47;;;;;;;22.98;39.26;95379.47;5019289;28;20084;-63
2022/10/19 06:33:08;;;;;;;7.95;5.30;;;;;;;22.39;38.90;95290.44;5017586;28;20038;-65
2022/10/19 06:35:34;;;;;;;8.35;5.72;;;;;;;22.20;38.88;95273.09;5013567;28;20053;-62
2022/10/19 06:37:59;;;;;;;6.97;4.95;;;;;;;22.71;39.51;95376.03;5020748;28;20160;-63
2022/10/19 06:40:25;;;;;;;8.20;5.65;;;;;;;22.20;40.23;95283.22;5015316;28;20033;-66
2022/10/19 06:42:50;;;;;;;11.13;6.10;;;;;;;21.96;39.28;95296.56;5008299;28;20022;-58
2022/10/19 06:45:16;;;;;;;8.80;5.47;;;;;;;21.98;40.58;95365.53;5021732;28;20029;-57
2022/10/19 06:47:41;;;;;;;8.77;5.53;;;;;;;21.99;39.91;95312.63;5024173;28;20045;-60
2022/10/19 06:50:07;;;;;;;8.80;5.65;;;;;;;21.78;39.88;95269.09;5008864;28;20119;-62
2022/10/19 06:52:33;;;;;;;8.60;5.55;;;;;;;22.58;39.95;95364.88;5015231;28;20070;-59
2022/10/19 06:54:59;;;;;;;8.27;5.50;;;;;;;21.76;39.84;95233.50;5023445;28;20038;-60
2022/10/19 06:57:24;;;;;;;6.82;5.25;;;;;;;21.92;40.27;95251.81;5017724;28;20056;-64
2022/10/19 06:59:50;;;;;;;8.35;5.85;;;;;;;21.84;39.96;95246.13;5010755;28;20049;-67
2022/10/19 07:02:15;;;;;;;7.88;5.30;;;;;;;22.68;40.29;95371.56;5013286;28;20049;-67
2022/10/19 07:04:40;;;;;;;7.63;5.03;;;;;;;21.75;40.18;95221.16;5029560;28;20050;-61
2022/10/19 07:07:06;;;;;;;7.18;5.30;;;;;;;22.38;39.87;95310.72;5014961;28;20034;-67
2022/10/19 07:09:32;;;;;;;7.18;5.53;;;;;;;22.53;40.35;95335.69;5008372;28;20104;-65
2022/10/19 07:11:57;;;;;;;9.30;5.55;;;;;;;22.43;40.28;95337.16;5008082;28;20037;-68
2022/10/19 07:14:23;;;;;;;7.68;5.20;;;;;;;22.31;40.02;95305.75;5007682;28;20073;-67
2022/10/19 07:16:49;;;;;;;7.20;5.30;;;;;;;21.67;40.11;95201.13;5014767;28;20492;-67
2022/10/19 07:19:15;;;;;;;8.05;5.15;;;;;;;22.27;39.47;95278.06;5019219;28;20028;-65
2022/10/19 07:21:42;;;;;;;7.82;4.97;;;;;;;22.72;40.10;95361.16;5006837;28;20389;-67
2022/10/19 07:24:08;;;;;;;6.88;5.20;;;;;;;21.81;40.15;95240.91;5008040;28;20049;-67
2022/10/19 07:26:33;;;;;;;6.88;4.75;;;;;;;22.59;40.37;95347.31;5009672;28;20787;-64
2022/10/19 07:28:59;;;;;;;6.43;4.60;;;;;;;22.68;40.40;95360.69;5020208;28;20107;-66
2022/10/19 07:31:26;;;;;;;7.32;5.18;;;;;;;22.70;40.41;95358.94;5006552;28;20034;-70
2022/10/19 07:33:58;;;;;;;7.78;5.22;;;;;;;22.66;40.42;95357.69;5011733;28;20051;-66
2022/10/19 07:36:24;;;;;;;7.97;5.25;;;;;;;22.35;40.33;95305.53;5017030;28;20041;-68
2022/10/19 07:38:50;;;;;;;6.80;4.97;;;;;;;21.95;40.29;95246.88;5016132;28;20052;-61
2022/10/19 07:41:16;;;;;;;6.70;5.00;;;;;;;20.05;40.14;94975.00;5007421;28;20042;-60
2022/10/19 07:43:43;;;;;;;6.43;4.53;;;;;;;22.68;40.30;95349.78;5007140;28;20053;-66
2022/10/19 07:46:10;;;;;;;8.18;5.15;;;;;;;22.08;40.26;95260.72;5017912;28;20038;-66
2022/10/19 07:48:36;;;;;;;7.03;4.63;;;;;;;22.69;40.28;95329.47;5007039;28;20048;-66
2022/10/19 07:51:03;;;;;;;7.22;5.30;;;;;;;22.25;40.45;95264.19;5004910;28;20033;-61
2022/10/19 07:53:28;;;;;;;7.18;4.90;;;;;;;22.12;40.28;95244.91;5005658;28;20038;-61
2022/10/19 07:55:54;;;;;;;7.30;4.63;;;;;;;21.95;40.14;95216.22;5020728;28;20044;-59
2022/10/19 07:58:19;;;;;;;7.85;4.95;;;;;;;22.71;40.00;95321.56;5010385;28;20057;-62
2022/10/19 08:00:45;;;;;;;7.25;5.13;;;;;;;22.57;40.23;95289.91;5012150;28;20396;-65
2022/10/19 08:03:10;;;;;;;6.95;4.82;;;;;;;22.11;40.39;95237.97;5013272;28;20379;-61
2022/10/19 08:05:36;;;;;;;6.72;4.95;;;;;;;21.87;40.27;95195.44;5014078;28;20050;-68
2022/10/19 08:08:01;;;;;;;7.35;4.88;;;;;;;21.72;40.17;95165.06;5014026;28;20501;-66
2022/10/19 08:10:27;;;;;;;8.65;4.82;;;;;;;22.56;40.36;95302.03;5008458;28;20408;-63
2022/10/19 08:12:52;;;;;;;7.95;4.97;;;;;;;22.19;40.26;95243.66;5006000;28;20053;-64
2022/10/19 08:15:18;;;;;;;8.13;5.13;;;;;;;22.65;40.55;95318.13;5005471;28;20057;-63
2022/10/19 08:17:43;;;;;;;7.22;5.10;;;;;;;22.66;40.42;95316.84;5023111;28;20120;-63
2022/10/19 08:20:09;;;;;;;7.80;4.53;;;;;;;22.68;40.17;95306.22;5011266;28;20046;-61
2022/10/19 08:22:34;;;;;;;8.30;5.15;;;;;;;22.68;40.26;95338.91;5008606;28;20192;-64
2022/10/19 08:25:00;;;;;;;5.75;4.72;;;;;;;22.71;40.38;95310.69;5009127;28;20022;-64
2022/10/19 08:27:25;;;;;;;6.68;4.97;;;;;;;22.76;40.37;95312.66;5012886;28;20053;-59
2022/10/19 08:29:51;;;;;;;5.75;4.50;;;;;;;22.76;40.15;95301.75;5006652;28;20092;-63
2022/10/19 08:32:17;;;;;;;8.15;5.00;;;;;;;22.84;40.33;95297.28;5009330;28;20040;-59
2022/10/19 08:34:42;;;;;;;7.60;4.95;;;;;;;22.87;39.87;95301.72;5010277;28;20513;-66
2022/10/19 08:37:08;;;;;;;6.45;4.47;;;;;;;22.88;40.16;95282.94;5009919;28;20095;-63
2022/10/19 08:39:33;;;;;;;6.63;4.80;;;;;;;22.90;40.05;95283.16;5006142;28;20047;-64
2022/10/19 08:42:02;;;;;;;6.15;4.75;;;;;;;22.88;39.97;95289.59;5019230;28;20050;-59
2022/10/19 08:44:42;;;;;;;6.10;4.45;;;;;;;22.90;39.90;95290.59;5009791;28;20053;-61
2022/10/19 08:47:30;;;;;;;6.28;4.50;;;;;;;22.00;39.91;95161.84;5007382;28;20057;-65
2022/10/19 08:49:55;;;;;;;9.02;6.03;;;;;;;22.44;39.81;95211.50;5018870;28;20534;-64
2022/10/19 08:52:23;;;;;;;7.88;5.05;;;;;;;22.10;39.54;95154.16;5015300;28;20030;-65
2022/10/19 08:54:50;;;;;;;7.20;4.60;;;;;;;22.88;39.92;95276.00;5003433;28;20496;-63
2022/10/19 08:57:42;;;;;;;6.45;4.88;;;;;;;23.00;39.96;95276.25;5004414;28;20041;-64
2022/10/19 09:00:52;;;;;;;7.00;5.25;;;;;;;22.99;39.50;95272.03;5017163;28;20033;-65
2022/10/19 09:03:30;;;;;;;6.88;4.63;;;;;;;23.01;39.94;95291.31;5011858;28;20501;-64
2022/10/19 09:06:05;;;;;;;6.78;4.60;;;;;;;23.09;39.55;95264.31;5015629;28;20043;-61
2022/10/19 09:08:30;;;;;;;8.48;5.07;;;;;;;22.85;39.26;95230.69;5004509;28;20041;-64
2022/10/19 09:10:56;;;;;;;8.18;4.90;;;;;;;23.17;39.09;95257.84;5003126;28;20689;-64
2022/10/19 09:13:42;;;;;;;7.50;4.95;;;;;;;22.94;39.15;95221.03;5006428;28;20421;-55
2022/10/19 09:16:15;;;;;;;7.40;4.60;;;;;;;23.14;39.26;95261.56;5010938;28;20025;-56
2022/10/19 09:18:41;;;;;;;7.53;4.85;;;;;;;23.22;39.05;95284.31;5023242;28;20048;-58
2022/10/19 09:21:15;;;;;;;9.23;5.53;;;;;;;23.14;39.76;95261.56;5018196;28;20033;-63
2022/10/19 09:23:53;;;;;;;9.95;5.18;;;;;;;22.95;39.77;95225.22;5012182;28;20038;-63
2022/10/19 09:26:20;;;;;;;7.25;5.10;;;;;;;22.90;39.66;95220.53;5009892;28;20045;-61
2022/10/19 09:29:27;;;;;;;7.50;4.78;;;;;;;23.37;39.75;95269.13;5017559;28;20139;-61
2022/10/19 09:31:54;;;;;;;6.53;5.13;;;;;;;22.30;39.95;95135.63;5021694;28;20034;-69
2022/10/19 09:34:24;;;;;;;7.88;5.35;;;;;;;22.84;40.10;95242.81;5004756;28;20108;-65
2022/10/19 09:36:57;;;;;;;6.20;4.90;;;;;;;23.03;39.75;95261.63;5000566;28;20060;-66
2022/10/19 09:39:24;;;;;;;7.90;4.72;;;;;;;22.97;39.71;95252.72;5023830;28;20041;-63
2022/10/19 09:41:52;;;;;;;6.80;4.70;;;;;;;23.04;39.81;95252.19;5024423;28;20109;-68
2022/10/19 09:44:18;;;;;;;6.38;4.63;;;;;;;23.19;40.08;95268.97;5019063;28;20049;-63
2022/10/19 09:47:11;;;;;;;6.45;4.65;;;;;;;23.16;40.04;95278.16;5026493;28;20044;-63
2022/10/19 09:49:38;;;;;;;8.20;5.47;;;;;;;23.19;40.09;95263.53;5020115;28;20752;-62
2022/10/19 09:52:03;;;;;;;7.18;5.53;;;;;;;23.25;39.64;95258.78;5022612;28;20017;-65
2022/10/19 09:54:36;;;;;;;6.93;4.93;;;;;;;23.34;38.43;95268.66;5010007;28;20042;-65
2022/10/19 09:57:02;;;;;;;6.70;4.38;;;;;;;23.34;38.08;95258.50;4988497;28;20048;-63
2022/10/19 09:59:29;;;;;;;8.68;5.30;;;;;;;23.44;39.10;95262.44;5022645;28;20187;-65
2022/10/19 10:02:00;;;;;;;9.80;5.88;;;;;;;23.46;39.28;95268.09;5022769;28;20455;-61
2022/10/19 10:04:25;;;;;;;7.90;5.40;;;;;;;23.56;39.24;95258.41;5014861;28;20040;-64
2022/10/19 10:06:51;;;;;;;8.38;5.57;;;;;;;23.59;38.86;95246.47;5021367;28;20009;-66
2022/10/19 10:09:17;;;;;;;7.65;5.35;;;;;;;23.54;38.58;95231.63;5008069;28;20060;-58
2022/10/19 10:11:44;;;;;;;7.90;5.50;;;;;;;23.64;38.82;95243.00;5022968;28;20080;-63
2022/10/19 10:14:18;;;;;;;7.97;5.45;;;;;;;23.70;39.03;95240.97;5026285;28;20500;-61
2022/10/19 10:16:43;;;;;;;7.45;5.40;;;;;;;23.86;38.42;95237.41;5015051;28;20050;-64
2022/10/19 10:19:11;;;;;;;8.98;5.80;;;;;;;23.85;38.74;95241.38;5010287;28;20025;-61
2022/10/19 10:21:48;;;;;;;8.80;6.03;;;;;;;23.87;38.73;95226.72;5021184;28;20081;-64
2022/10/19 10:24:15;;;;;;;9.48;5.45;;;;;;;23.93;38.39;95221.97;5008597;28;20046;-64
2022/10/19 10:26:45;;;;;;;8.23;5.28;;;;;;;23.96;38.63;95215.50;5006997;28;20058;-64
2022/10/19 10:29:17;;;;;;;7.50;5.28;;;;;;;24.07;38.32;95204.50;5008438;28;20095;-64
2022/10/19 10:31:42;;;;;;;8.73;5.15;;;;;;;24.17;37.83;95208.38;5008323;28;20046;-60
2022/10/19 10:34:10;;;;;;;9.18;5.25;;;;;;;24.12;38.40;95206.44;5011268;28;20404;-65
2022/10/19 10:36:36;;;;;;;7.47;5.53;;;;;;;24.19;38.30;95200.41;5020187;28;20050;-65
2022/10/19 10:39:05;;;;;;;6.72;4.97;;;;;;;24.19;38.37;95194.97;5021016;28;20054;-62
2022/10/19 10:41:35;;;;;;;8.13;5.20;;;;;;;24.18;38.13;95190.75;5020890;28;20045;-67
2022/10/19 10:44:05;;;;;;;7.70;4.97;;;;;;;24.12;38.36;95168.22;5020811;28;20044;-62
2022/10/19 10:46:48;;;;;;;8.07;5.53;;;;;;;24.41;38.09;95183.88;5002691;28;20052;-63
2022/10/19 10:49:28;;;;;;;9.27;5.80;;;;;;;24.33;37.77;95177.47;5020313;28;20052;-62
2022/10/19 10:51:56;;;;;;;6.45;5.03;;;;;;;24.14;38.51;95184.84;5021959;28;20419;-63
2022/10/19 10:54:31;;;;;;;7.65;5.53;;;;;;;24.11;38.34;95166.75;5020436;28;20741;-65
2022/10/19 10:57:15;;;;;;;7.68;5.35;;;;;;;24.10;38.43;95165.28;5020207;28;20037;-65
2022/10/19 10:59:54;;;;;;;7.43;4.97;;;;;;;24.19;38.02;95164.94;5007622;28;20046;-65
2022/10/19 11:02:41;;;;;;;7.47;5.40;;;;;;;24.18;38.39;95157.28;5020862;28;20038;-66
2022/10/19 11:05:17;;;;;;;6.43;4.80;;;;;;;23.86;38.64;95129.78;5006426;28;20037;-63
2022/10/19 11:07:47;;;;;;;7.60;4.93;;;;;;;23.92;38.91;95144.09;5010363;28;20053;-64
2022/10/19 11:10:23;;;;;;;10.70;5.30;;;;;;;23.92;38.58;95133.19;5020162;28;20026;-60
2022/10/19 11:13:12;;;;;;;7.88;4.80;;;;;;;24.08;38.84;95151.41;5020569;28;20051;-63
2022/10/19 11:15:59;;;;;;;7.88;5.28;;;;;;;23.99;38.69;95146.28;5004774;28;20057;-60
2022/10/19 11:18:55;;;;;;;7.55;4.93;;;;;;;23.87;38.53;95139.44;5007975;28;20406;-64
2022/10/19 11:21:41;;;;;;;8.38;5.25;;;;;;;23.99;38.34;95137.34;5015564;28;20037;-63
2022/10/19 11:24:39;;;;;;;8.25;5.18;;;;;;;23.89;38.30;95134.22;5004656;28;20496;-62
2022/10/19 11:27:13;;;;;;;6.95;4.85;;;;;;;23.96;38.52;95141.84;5008265;28;20480;-64
2022/10/19 11:29:58;;;;;;;7.80;5.35;;;;;;;23.70;38.48;95102.66;5016929;28;20460;-61
2022/10/19 11:32:39;;;;;;;7.78;5.07;;;;;;;23.86;38.69;95125.59;5018293;28;20042;-65
2022/10/19 11:35:08;;;;;;;8.75;5.35;;;;;;;23.74;39.01;95122.22;5004651;28;20041;-62
2022/10/19 11:37:48;;;;;;;7.47;4.73;;;;;;;23.86;38.63;95120.13;5006557;28;20053;-65
2022/10/19 11:40:33;;;;;;;8.50;5.22;;;;;;;23.75;39.00;95120.22;5003905;28;20293;-64